Aktualne dane pomiarowe

Uwaga, wersja testowa! Automatyczne pobieranie danych za pomocą narzędzi lub skryptów to umożliwiających jest zabronione.

Dane meteo z obszaru Polski uzyskane na podstawie depesz SYNOP pobieranych co godzinę z NWS. Najedź myszką na symbol przedstawiony w tabeli, aby uzyskać informacje co do jego znaczenia. Prosimy pamiętać, że to testowa wersja strony, która jeszcze nie jest ukończona. Stworzono również jest krótki FAQ dotyczący korzystania z tej podstrony Anomalie temperatury w chwili obecnej odniesione są do okresu referencyjnego 1951-2016. Okres ten będzie później zmieniony na 1981-2010. Kliknij ikonę aby pobrać plik CSV. Kliknij ikonę aby wygenerować mapę synoptyczną dla danego terminu.

Wybierz Datę:    

        

Suwałki (12195)

Dane terminowe dla wybranej stacji. Kliknij datę, aby otrzymać dane z tego terminu dla wszystkich stacji.

TemperaturaZachmurzenieWiatrCiśnienieOpadyPogoda
 Data t td wb tx tn tg rh  Nt Nl Cl Cm Ch ws wd g1 g2 wx mslp ppp ch 24h 12h t ww ww w1 w2  
2019-07-20 23:00:00 15.3 13.3 13.9--- 8815.0wx-1wx--11017.6 995.4 0.5---------
2019-07-20 22:00:00 15.8 13.3 14.1--- 8516.0wx-1wx--11017.4 995.3 0.8---------
2019-07-20 21:00:00 17.3 13.6 14.8--- 7917.0wx-0----1017.2 995.2 1.0---------
2019-07-20 20:00:00 20.1 13.3 15.7--- 6530.0wx-1wx--11016.7 994.9 0.8---------
2019-07-20 19:00:00 22.9 13.1 16.8--- 5430.0wxwxwx2wx--21016.1 994.5 0.4---------
2019-07-20 18:00:00 24.5 14.0 17.9 27.7 19.7- 5235.0wxwxwx2wx-921015.7 994.2 0.0- 0.012------
2019-07-20 17:00:00 25.2 13.4 17.9--- 4835.0wxwxwx3wx--31015.5 994.1 0.0---------
2019-07-20 16:00:00 25.9 12.7 17.8--- 4428.0wxwxwx2wx--21015.5 994.1 0.3---------
2019-07-20 15:00:00 25.3 13.2 17.8--- 4726.0wxwxwx5wx---1015.6 994.2 0.3---------
2019-07-20 14:00:00 26.8 12.8 18.2--- 4227.0wxwxwxwx2wx--21015.4 994.1 0.1---------
2019-07-20 13:00:00 27.0 11.1 17.5--- 3730.0wxwxwx2wx--21015.1 993.8 -0.3---------
2019-07-20 12:00:00 26.1 11.4 17.3--- 4030.0wxwxwx3wx--31015.2 993.9 -0.2- 0.06------
2019-07-20 11:00:00 25.4 12.3 17.4--- 4429.0wxwxwx2wx--21015.4 994.0 0.2---------
2019-07-20 10:00:00 24.7 12.6 17.3--- 4724.0wx-2wx--21015.5 994.1 0.5---------
2019-07-20 09:00:00 22.8 11.5 16.0--- 4930.0wx-wx2wx--21015.7 994.1 0.5---------
2019-07-20 08:00:00 21.1 12.0 15.5--- 5635.0wx-wx2wx--21015.5 993.8 0.5---------
2019-07-20 07:00:00 20.8 12.2 15.5--- 5840.0wx-wx3wx--31015.3 993.6 0.5---------
2019-07-20 06:00:00 19.7 11.5 14.6 21.2 11.0 9 5930.0wx-wx3wx--31015.4 993.6 0.5- 0.012-22--- 10.9
2019-07-20 05:00:00 18.1 12.5 14.5--- 7030.0wx-wx1wx---1015.2 993.3 0.2---------
2019-07-20 04:00:00 14.8 11.8 12.8--- 8235.0wx-wx2wx--21015.3 993.1 0.1----22----
2019-07-20 03:00:00 11.7 10.1 10.6--- 9030.0wx-wxwx1wx--11015.5 993.1 0.1----22----
2019-07-20 02:00:00 11.5 9.9 10.4--- 9029.0wx-wxwx1wx--11015.5 993.1 0.0----22----
2019-07-20 01:00:00 11.7 9.8 10.4--- 8830.0wx-wxwx1wx--11015.4 993.0 0.1----22----
2019-07-20 00:00:00 12.2 9.9 10.7--- 8627.0wx-wxwx1wx--11015.4 993.0 0.2- 0.06-22----
2019-07-19 23:00:00 12.7 10.4 11.1--- 8613.0wx-wxwx1wx---1015.4 993.1 0.5---------
2019-07-19 22:00:00 13.3 10.8 11.6--- 8535.0wxwxwxwx1wx--11015.2 992.9 0.6----22----
2019-07-19 21:00:00 14.2 11.0 12.1--- 8140.0wx-wx1wx--11015.0 992.8 0.7---------
2019-07-19 20:00:00 15.5 11.1 12.7--- 7525.0wx-wx1wx--11014.7 992.6 0.6---------
2019-07-19 19:00:00 18.1 10.9 13.6--- 6350.0wx-wx1wx--11014.2 992.3 0.3---------
2019-07-19 18:00:00 21.2 10.7 14.9 23.7 14.0- 5150.0wx-wx1wx--11013.8 992.1 -0.1- 0.012------
2019-07-19 17:00:00 22.3 9.8 15.0--- 4545.0wx-wx2wx--21013.6 992.0 -0.3---------
2019-07-19 16:00:00 22.5 9.3 14.8--- 4335.0wxwxwx3wx--31013.6 992.0 -0.3---------
2019-07-19 15:00:00 23.2 9.2 15.1--- 4135.0wxwxwx4wx--41013.7 992.2 -0.2---------
2019-07-19 14:00:00 23.4 8.7 14.9--- 3945.0wxwxwx3wx--31013.8 992.3 -0.3---------
2019-07-19 13:00:00 22.4 8.5 14.4--- 4135.0wxwxwx4wx--41013.9 992.3 -0.4---------
2019-07-19 12:00:00 23.2 9.6 15.3--- 4230.0wxwxwx4wx--41013.9 992.4 -0.3- 0.06------
2019-07-19 11:00:00 22.1 9.6 14.8--- 4535.0wxwxwx4wx--41014.2 992.6 -0.2---------
2019-07-19 10:00:00 21.4 9.6 14.5--- 4735.0wxwxwx3wx--31014.4 992.7 0.0---------
2019-07-19 09:00:00 20.5 10.3 14.4--- 5235.0wxwxwx3wx--31014.4 992.7 0.1---------
2019-07-19 08:00:00 19.3 13.7 15.6--- 7028.0wxwxwx2wx--21014.6 992.8 0.4---------
2019-07-19 07:00:00 16.2 13.5 14.3--- 8428.0wxwxwx2wx--21014.8 992.7 0.5---------
2019-07-19 06:00:00 14.1 13.6 13.7 18.8 11.3 9 979.0wxwxwx2wx--21014.8 992.6 0.5- 0.012wx-w1- 8.4
2019-07-19 05:00:00 13.1 12.6 12.7--- 972.3wxwxwx2wx--21014.7 992.4 0.5---wx-w1--
2019-07-19 04:00:00 12.7 12.2 12.3--- 970.8wxwxwx2wx--21014.5 992.2 0.5---wx22--
2019-07-19 03:00:00 12.4 11.9 12.0--- 971.8wxwxwx3wx--31014.4 992.1 0.4---wx22--
2019-07-19 02:00:00 11.6 11.0 11.1--- 965.0wxwxwx2wx--21014.3 991.9 0.3---wx22--
2019-07-19 01:00:00 11.3 10.5 10.7--- 953.8wx-3wx--31014.1 991.7 0.3---wx22--
2019-07-19 00:00:00 12.4 11.6 11.8--- 9511.0wx-3wx--31014.0 991.7 0.3- 0.06-22----
1.9 ms

 

Print Friendly, PDF & Email